createdAt,value
2018-02-27T00:00:26.911Z,0
2018-02-27T00:01:35.732Z,0
2018-02-27T00:02:44.555Z,0
2018-02-27T00:03:53.374Z,0
2018-02-27T00:05:02.195Z,0
2018-02-27T00:06:11.020Z,0
2018-02-27T00:07:19.844Z,0
2018-02-27T00:08:28.664Z,0
2018-02-27T00:09:37.486Z,0
2018-02-27T00:10:46.308Z,0
2018-02-27T00:11:55.134Z,0
2018-02-27T00:13:04.252Z,0
2018-02-27T00:14:13.076Z,0
2018-02-27T00:15:21.898Z,0
2018-02-27T00:16:30.717Z,0
2018-02-27T00:17:39.541Z,0
2018-02-27T00:18:48.364Z,0
2018-02-27T00:19:57.184Z,0
2018-02-27T00:21:06.006Z,0
2018-02-27T00:22:14.830Z,0
2018-02-27T00:23:23.652Z,0
2018-02-27T00:24:32.475Z,0
2018-02-27T00:25:41.293Z,0
2018-02-27T00:26:50.114Z,0
2018-02-27T00:27:58.937Z,0
2018-02-27T00:29:07.818Z,0
2018-02-27T00:30:16.578Z,0
2018-02-27T00:31:25.401Z,0
2018-02-27T00:32:34.223Z,0
2018-02-27T00:33:43.045Z,0
2018-02-27T00:34:51.868Z,0
2018-02-27T00:36:01.018Z,0
2018-02-27T00:37:09.840Z,0
2018-02-27T00:38:18.947Z,0
2018-02-27T00:39:27.771Z,0
2018-02-27T00:40:36.592Z,0
2018-02-27T00:41:45.411Z,0
2018-02-27T00:42:54.232Z,0
2018-02-27T00:44:03.053Z,0
2018-02-27T00:45:11.873Z,0
2018-02-27T00:46:20.971Z,0
2018-02-27T00:47:29.895Z,0
2018-02-27T00:48:38.712Z,0
2018-02-27T00:49:47.532Z,0
2018-02-27T00:50:56.354Z,0
2018-02-27T00:52:05.177Z,0
2018-02-27T00:53:14.153Z,0
2018-02-27T00:54:22.968Z,0
2018-02-27T00:55:31.791Z,0
2018-02-27T00:56:40.625Z,0
2018-02-27T00:57:49.434Z,0
2018-02-27T00:58:58.657Z,0
2018-02-27T01:00:07.484Z,0
2018-02-27T01:01:16.300Z,0
2018-02-27T01:02:25.121Z,0
2018-02-27T01:03:33.941Z,0
2018-02-27T01:04:42.762Z,0
2018-02-27T01:05:51.584Z,0
2018-02-27T01:07:00.405Z,0
2018-02-27T01:08:09.228Z,0
2018-02-27T01:09:18.049Z,0
2018-02-27T01:10:26.870Z,0
2018-02-27T01:11:35.692Z,0
2018-02-27T01:12:44.513Z,0
2018-02-27T01:13:53.335Z,0
2018-02-27T01:15:02.156Z,0
2018-02-27T01:16:11.226Z,0
2018-02-27T01:17:20.051Z,0
2018-02-27T01:18:28.871Z,0
2018-02-27T01:19:37.744Z,0
2018-02-27T01:20:46.563Z,0
2018-02-27T01:21:55.390Z,0
2018-02-27T01:23:04.485Z,0
2018-02-27T01:24:13.314Z,0
2018-02-27T01:25:22.127Z,0
2018-02-27T01:26:30.947Z,0
2018-02-27T01:27:39.819Z,0
2018-02-27T01:28:48.641Z,0
2018-02-27T01:29:57.464Z,0
2018-02-27T01:31:06.287Z,0
2018-02-27T01:32:15.108Z,0
2018-02-27T01:33:24.080Z,0
2018-02-27T01:34:32.901Z,0
2018-02-27T01:35:41.723Z,0
2018-02-27T01:36:50.544Z,0
2018-02-27T01:37:59.363Z,0
2018-02-27T01:39:08.562Z,0
2018-02-27T01:40:17.383Z,0
2018-02-27T01:41:26.204Z,0
2018-02-27T01:42:35.027Z,0
2018-02-27T01:43:43.846Z,0
2018-02-27T01:44:52.769Z,0
2018-02-27T01:46:01.589Z,0
2018-02-27T01:47:10.689Z,0
2018-02-27T01:48:19.511Z,0
2018-02-27T01:49:28.332Z,0
2018-02-27T01:50:37.459Z,0
2018-02-27T01:51:46.281Z,0
2018-02-27T01:52:55.113Z,0
2018-02-27T01:54:03.929Z,0
2018-02-27T01:55:12.750Z,0
2018-02-27T01:56:21.576Z,0
2018-02-27T01:57:30.400Z,0
2018-02-27T01:58:39.223Z,0
2018-02-27T01:59:48.046Z,0
2018-02-27T02:00:56.870Z,0
2018-02-27T02:02:06.068Z,0
2018-02-27T02:03:14.889Z,0
2018-02-27T02:04:23.986Z,0
2018-02-27T02:05:33.083Z,0
2018-02-27T02:06:42.182Z,0
2018-02-27T02:07:51.002Z,0
2018-02-27T02:08:59.823Z,0
2018-02-27T02:10:08.644Z,0
2018-02-27T02:11:17.468Z,0
2018-02-27T02:12:26.288Z,0
2018-02-27T02:13:35.490Z,0
2018-02-27T02:14:44.311Z,0
2018-02-27T02:15:53.134Z,0
2018-02-27T02:17:01.954Z,0
2018-02-27T02:18:11.059Z,0
2018-02-27T02:19:20.459Z,0
2018-02-27T02:20:29.280Z,0
2018-02-27T02:21:38.383Z,0
2018-02-27T02:22:47.204Z,0
2018-02-27T02:23:56.026Z,0
2018-02-27T02:25:05.097Z,0
2018-02-27T02:26:13.921Z,0
2018-02-27T02:27:22.741Z,0
2018-02-27T02:28:31.566Z,0
2018-02-27T02:29:40.389Z,0
2018-02-27T02:30:49.208Z,0
2018-02-27T02:31:58.039Z,0
2018-02-27T02:33:06.856Z,0
2018-02-27T02:34:15.964Z,0
2018-02-27T02:35:24.786Z,0
2018-02-27T02:36:33.761Z,0
2018-02-27T02:37:42.589Z,0
2018-02-27T02:38:51.409Z,0
2018-02-27T02:40:00.232Z,0
2018-02-27T02:41:09.055Z,0
2018-02-27T02:42:18.155Z,0
2018-02-27T02:43:26.976Z,0
2018-02-27T02:44:35.801Z,0
2018-02-27T02:45:44.624Z,0
2018-02-27T02:46:53.446Z,0
2018-02-27T02:48:02.318Z,0
2018-02-27T02:49:11.141Z,0
2018-02-27T02:50:20.237Z,0
2018-02-27T02:51:29.058Z,0
2018-02-27T02:52:37.881Z,0
2018-02-27T02:53:46.703Z,0
2018-02-27T02:54:55.525Z,0
2018-02-27T02:56:04.347Z,0
2018-02-27T02:57:13.168Z,0
2018-02-27T02:58:21.987Z,0
2018-02-27T02:59:31.087Z,0
2018-02-27T03:00:39.907Z,0
2018-02-27T03:01:48.728Z,0
2018-02-27T03:02:57.551Z,0
2018-02-27T03:04:06.373Z,0
2018-02-27T03:05:15.496Z,0
2018-02-27T03:06:24.323Z,0
2018-02-27T03:07:33.144Z,0
2018-02-27T03:08:42.241Z,0
2018-02-27T03:09:51.066Z,0
2018-02-27T03:11:00.142Z,0
2018-02-27T03:12:08.960Z,0
2018-02-27T03:13:17.784Z,0
2018-02-27T03:14:26.604Z,0
2018-02-27T03:15:35.426Z,0
2018-02-27T03:16:44.401Z,0
2018-02-27T03:17:53.222Z,0
2018-02-27T03:19:02.042Z,0
2018-02-27T03:20:10.863Z,0
2018-02-27T03:21:19.971Z,0
2018-02-27T03:22:28.936Z,0
2018-02-27T03:23:37.763Z,0
2018-02-27T03:24:46.584Z,0
2018-02-27T03:25:55.405Z,0
2018-02-27T03:27:04.228Z,0
2018-02-27T03:28:13.200Z,0
2018-02-27T03:29:22.020Z,0
2018-02-27T03:30:31.122Z,0
2018-02-27T03:31:39.949Z,0
2018-02-27T03:32:48.773Z,0
2018-02-27T03:33:57.592Z,0
2018-02-27T03:35:06.417Z,0
2018-02-27T03:36:15.238Z,0
2018-02-27T03:37:24.057Z,0
2018-02-27T03:38:32.878Z,0
2018-02-27T03:39:42.380Z,0
2018-02-27T03:40:51.203Z,0
2018-02-27T03:42:00.300Z,0
2018-02-27T03:43:09.123Z,0
2018-02-27T03:44:17.945Z,0
2018-02-27T03:45:26.762Z,0
2018-02-27T03:46:35.584Z,0
2018-02-27T03:47:44.405Z,0
2018-02-27T03:48:53.227Z,0
2018-02-27T03:50:02.049Z,0
2018-02-27T03:51:11.020Z,0
2018-02-27T03:52:19.845Z,0
2018-02-27T03:53:28.663Z,0
2018-02-27T03:54:37.486Z,0
2018-02-27T03:55:46.306Z,0
2018-02-27T03:56:55.278Z,0
2018-02-27T03:58:04.098Z,0
2018-02-27T03:59:12.920Z,0
2018-02-27T04:00:21.739Z,0
2018-02-27T04:01:30.559Z,0
2018-02-27T04:02:39.978Z,0
2018-02-27T04:03:48.800Z,0
2018-02-27T04:04:57.620Z,0
2018-02-27T04:06:06.443Z,0
2018-02-27T04:07:15.266Z,0
2018-02-27T04:08:24.238Z,0
2018-02-27T04:09:33.057Z,0
2018-02-27T04:10:41.879Z,0
2018-02-27T04:11:50.702Z,0
2018-02-27T04:12:59.523Z,0
2018-02-27T04:14:08.443Z,0
2018-02-27T04:15:17.268Z,0
2018-02-27T04:16:26.088Z,0
2018-02-27T04:17:34.910Z,0
2018-02-27T04:18:44.011Z,0
2018-02-27T04:19:53.111Z,0
2018-02-27T04:21:01.932Z,0
2018-02-27T04:22:10.752Z,0
2018-02-27T04:23:19.572Z,0
2018-02-27T04:24:28.391Z,0
2018-02-27T04:25:37.370Z,0
2018-02-27T04:26:46.193Z,0
2018-02-27T04:27:55.012Z,0
2018-02-27T04:29:03.835Z,0
2018-02-27T04:30:12.652Z,0
2018-02-27T04:31:21.629Z,0
2018-02-27T04:32:30.728Z,0
2018-02-27T04:33:39.548Z,0
2018-02-27T04:34:48.374Z,0
2018-02-27T04:35:57.471Z,0
2018-02-27T04:37:06.392Z,0
2018-02-27T04:38:15.227Z,0
2018-02-27T04:39:24.048Z,0
2018-02-27T04:40:32.866Z,0
2018-02-27T04:41:41.686Z,0
2018-02-27T04:42:50.657Z,0
2018-02-27T04:43:59.479Z,0
2018-02-27T04:45:08.303Z,0
2018-02-27T04:46:17.126Z,0
2018-02-27T04:47:25.948Z,0
2018-02-27T04:48:34.874Z,0
2018-02-27T04:49:43.690Z,0
2018-02-27T04:50:52.789Z,0
2018-02-27T04:52:01.612Z,0
2018-02-27T04:53:10.431Z,0
2018-02-27T04:54:19.257Z,0
2018-02-27T04:55:28.076Z,0
2018-02-27T04:56:36.897Z,0
2018-02-27T04:57:45.716Z,0
2018-02-27T04:58:54.537Z,0
2018-02-27T05:00:03.660Z,0
2018-02-27T05:01:12.480Z,0
2018-02-27T05:02:21.300Z,0
2018-02-27T05:03:30.121Z,0
2018-02-27T05:04:38.946Z,0
2018-02-27T05:05:48.341Z,0
2018-02-27T05:06:57.161Z,0
2018-02-27T05:08:05.984Z,0
2018-02-27T05:09:15.082Z,0
2018-02-27T05:10:24.177Z,0
2018-02-27T05:11:32.999Z,0
2018-02-27T05:12:42.117Z,0
2018-02-27T05:13:51.214Z,0
2018-02-27T05:15:00.034Z,0
2018-02-27T05:16:08.863Z,0
2018-02-27T05:17:18.086Z,0
2018-02-27T05:18:27.186Z,0
2018-02-27T05:19:36.005Z,0
2018-02-27T05:20:44.825Z,0
2018-02-27T05:21:53.643Z,0
2018-02-27T05:23:02.663Z,0
2018-02-27T05:24:11.482Z,0
2018-02-27T05:25:20.300Z,0
2018-02-27T05:26:29.122Z,0
2018-02-27T05:27:38.226Z,0
2018-02-27T05:28:47.047Z,0
2018-02-27T05:29:55.867Z,0
2018-02-27T05:31:04.687Z,0
2018-02-27T05:32:13.507Z,0
2018-02-27T05:33:22.330Z,0
2018-02-27T05:34:31.250Z,0
2018-02-27T05:35:40.070Z,0
2018-02-27T05:36:48.890Z,0
2018-02-27T05:37:57.715Z,0
2018-02-27T05:39:06.808Z,0
2018-02-27T05:40:16.036Z,0
2018-02-27T05:41:24.847Z,0
2018-02-27T05:42:33.720Z,0
2018-02-27T05:43:42.495Z,0
2018-02-27T05:44:51.315Z,0
2018-02-27T05:46:00.412Z,0
2018-02-27T05:47:09.517Z,0
2018-02-27T05:48:18.336Z,0
2018-02-27T05:49:27.157Z,0
2018-02-27T05:50:35.977Z,0
2018-02-27T05:51:44.949Z,0
2018-02-27T05:52:53.771Z,0
2018-02-27T05:54:02.589Z,0
2018-02-27T05:55:11.408Z,0
2018-02-27T05:56:20.504Z,0
2018-02-27T05:57:29.707Z,0
2018-02-27T05:58:39.075Z,0
2018-02-27T05:59:47.926Z,0
2018-02-27T06:00:56.998Z,0
2018-02-27T06:02:06.378Z,0
2018-02-27T06:03:15.298Z,0
2018-02-27T06:04:24.117Z,0
2018-02-27T06:05:32.938Z,0
2018-02-27T06:06:41.761Z,0
2018-02-27T06:07:50.586Z,0
2018-02-27T06:08:59.450Z,0
2018-02-27T06:10:08.271Z,5
2018-02-27T06:11:17.094Z,5
2018-02-27T06:12:25.915Z,5
2018-02-27T06:13:34.734Z,5
2018-02-27T06:14:43.831Z,5
2018-02-27T06:15:52.655Z,5
2018-02-27T06:17:01.489Z,10
2018-02-27T06:18:10.294Z,10
2018-02-27T06:19:19.116Z,10
2018-02-27T06:20:28.038Z,10
2018-02-27T06:21:36.858Z,15
2018-02-27T06:22:45.706Z,15
2018-02-27T06:23:54.812Z,15
2018-02-27T06:25:03.633Z,15
2018-02-27T06:26:12.452Z,20
2018-02-27T06:27:21.277Z,20
2018-02-27T06:28:30.118Z,20
2018-02-27T06:29:38.941Z,25
2018-02-27T06:30:48.036Z,25
2018-02-27T06:31:56.857Z,25
2018-02-27T06:33:05.678Z,30
2018-02-27T06:34:14.496Z,30
2018-02-27T06:35:23.317Z,30
2018-02-27T06:36:32.418Z,35
2018-02-27T06:37:41.238Z,35
2018-02-27T06:38:50.058Z,35
2018-02-27T06:39:58.879Z,35
2018-02-27T06:41:07.698Z,40
2018-02-27T06:42:16.523Z,40
2018-02-27T06:43:25.339Z,40
2018-02-27T06:44:34.442Z,45
2018-02-27T06:45:43.260Z,45
2018-02-27T06:46:52.281Z,45
2018-02-27T06:48:01.103Z,45
2018-02-27T06:49:09.924Z,50
2018-02-27T06:50:18.743Z,50
2018-02-27T06:51:27.561Z,50
2018-02-27T06:52:36.956Z,55
2018-02-27T06:53:45.776Z,55
2018-02-27T06:54:54.598Z,55
2018-02-27T06:56:03.416Z,60
2018-02-27T06:57:12.513Z,60
2018-02-27T06:58:21.439Z,60
2018-02-27T06:59:30.533Z,60
2018-02-27T07:00:39.354Z,65
2018-02-27T07:01:48.175Z,65
2018-02-27T07:02:56.998Z,65
2018-02-27T07:04:06.394Z,65
2018-02-27T07:05:15.212Z,70
2018-02-27T07:06:24.032Z,70
2018-02-27T07:07:33.130Z,70
2018-02-27T07:08:41.951Z,75
2018-02-27T07:09:50.923Z,75
2018-02-27T07:10:59.741Z,80
2018-02-27T07:12:08.563Z,80
2018-02-27T07:13:17.384Z,85
2018-02-27T07:14:26.205Z,85
2018-02-27T07:15:35.076Z,90
2018-02-27T07:16:43.905Z,90
2018-02-27T07:17:52.998Z,95
2018-02-27T07:19:02.094Z,95
2018-02-27T07:20:10.914Z,95
2018-02-27T07:21:19.884Z,100
2018-02-27T07:22:28.705Z,100
2018-02-27T07:23:37.527Z,105
2018-02-27T07:24:46.355Z,105
2018-02-27T07:25:55.170Z,100
2018-02-27T07:27:04.096Z,100
2018-02-27T07:28:12.914Z,90
2018-02-27T07:29:21.734Z,85
2018-02-27T07:30:30.557Z,90
2018-02-27T07:31:39.381Z,90
2018-02-27T07:32:48.301Z,90
2018-02-27T07:33:57.121Z,95
2018-02-27T07:35:05.943Z,100
2018-02-27T07:36:14.762Z,110
2018-02-27T07:37:23.581Z,120
2018-02-27T07:38:32.798Z,120
2018-02-27T07:39:41.619Z,125
2018-02-27T07:40:50.439Z,130
2018-02-27T07:41:59.410Z,130
2018-02-27T07:43:08.230Z,120
2018-02-27T07:44:17.103Z,120
2018-02-27T07:45:25.924Z,125
2018-02-27T07:46:34.748Z,125
2018-02-27T07:47:43.572Z,130
2018-02-27T07:48:52.392Z,145
2018-02-27T07:50:01.515Z,150
2018-02-27T07:51:10.338Z,155
2018-02-27T07:52:19.160Z,155
2018-02-27T07:53:27.980Z,155
2018-02-27T07:54:36.808Z,155
2018-02-27T07:55:45.727Z,155
2018-02-27T07:56:54.549Z,155
2018-02-27T07:58:03.382Z,160
2018-02-27T07:59:12.202Z,170
2018-02-27T08:00:21.025Z,175
2018-02-27T08:01:29.996Z,180
2018-02-27T08:02:38.819Z,180
2018-02-27T08:03:47.642Z,180
2018-02-27T08:04:56.464Z,180
2018-02-27T08:06:05.290Z,185
2018-02-27T08:07:14.264Z,190
2018-02-27T08:08:23.089Z,200
2018-02-27T08:09:32.187Z,210
2018-02-27T08:10:41.008Z,215
2018-02-27T08:11:49.830Z,210
2018-02-27T08:12:58.812Z,210
2018-02-27T08:14:07.623Z,200
2018-02-27T08:15:16.450Z,185
2018-02-27T08:16:25.266Z,180
2018-02-27T08:17:34.088Z,165
2018-02-27T08:18:43.059Z,160
2018-02-27T08:19:51.882Z,160
2018-02-27T08:21:00.706Z,155
2018-02-27T08:22:09.526Z,160
2018-02-27T08:23:18.635Z,160
2018-02-27T08:24:27.506Z,165
2018-02-27T08:25:36.331Z,165
2018-02-27T08:26:45.153Z,165
2018-02-27T08:27:53.976Z,185
2018-02-27T08:29:02.800Z,175
2018-02-27T08:30:11.717Z,175
2018-02-27T08:31:20.496Z,200
2018-02-27T08:32:29.319Z,220
2018-02-27T08:33:38.146Z,280
2018-02-27T08:34:46.965Z,310
2018-02-27T08:35:55.837Z,335
2018-02-27T08:37:04.664Z,345
2018-02-27T08:38:13.486Z,355
2018-02-27T08:39:22.309Z,365
2018-02-27T08:40:31.135Z,360
2018-02-27T08:41:40.008Z,345
2018-02-27T08:42:48.836Z,335
2018-02-27T08:43:57.658Z,340
2018-02-27T08:45:06.484Z,345
2018-02-27T08:46:15.586Z,345
2018-02-27T08:47:24.509Z,350
2018-02-27T08:48:33.337Z,345
2018-02-27T08:49:42.435Z,335
2018-02-27T08:50:51.264Z,325
2018-02-27T08:52:00.366Z,330
2018-02-27T08:53:09.289Z,345
2018-02-27T08:54:18.112Z,345
2018-02-27T08:55:27.215Z,350
2018-02-27T08:56:36.045Z,350
2018-02-27T08:57:44.874Z,345
2018-02-27T08:58:53.801Z,350
2018-02-27T09:00:02.628Z,355
2018-02-27T09:01:11.451Z,355
2018-02-27T09:02:20.276Z,310
2018-02-27T09:03:29.100Z,285
2018-02-27T09:04:38.025Z,280
2018-02-27T09:05:46.856Z,270
2018-02-27T09:06:55.957Z,270
2018-02-27T09:08:04.839Z,260
2018-02-27T09:09:13.605Z,265
2018-02-27T09:10:22.730Z,265
2018-02-27T09:11:31.831Z,280
2018-02-27T09:12:40.656Z,280
2018-02-27T09:13:49.482Z,275
2018-02-27T09:14:58.582Z,290
2018-02-27T09:16:07.810Z,325
2018-02-27T09:17:16.636Z,310
2018-02-27T09:18:25.460Z,315
2018-02-27T09:19:34.284Z,290
2018-02-27T09:20:43.109Z,285
2018-02-27T09:21:52.229Z,265
2018-02-27T09:23:01.054Z,315
2018-02-27T09:24:10.154Z,310
2018-02-27T09:25:18.981Z,335
2018-02-27T09:26:27.805Z,340
2018-02-27T09:27:36.631Z,325
2018-02-27T09:28:45.458Z,285
2018-02-27T09:29:54.282Z,260
2018-02-27T09:31:03.112Z,255
2018-02-27T09:32:11.935Z,260
2018-02-27T09:33:20.814Z,245
2018-02-27T09:34:29.916Z,230
2018-02-27T09:35:38.733Z,230
2018-02-27T09:36:47.560Z,215
2018-02-27T09:37:56.388Z,220
2018-02-27T09:39:05.362Z,215
2018-02-27T09:40:14.474Z,220
2018-02-27T09:41:23.301Z,225
2018-02-27T09:42:32.124Z,215
2018-02-27T09:43:40.948Z,230
2018-02-27T09:44:49.842Z,225
2018-02-27T09:45:58.642Z,250
2018-02-27T09:47:07.469Z,225
2018-02-27T09:48:16.574Z,260
2018-02-27T09:49:25.403Z,250
2018-02-27T09:50:34.376Z,255
2018-02-27T09:51:43.203Z,260
2018-02-27T09:52:52.026Z,265
2018-02-27T09:54:00.853Z,260
2018-02-27T09:55:09.675Z,250
2018-02-27T09:56:18.650Z,260
2018-02-27T09:57:27.473Z,260
2018-02-27T09:58:36.296Z,270
2018-02-27T09:59:45.122Z,265
2018-02-27T10:00:53.945Z,250
2018-02-27T10:02:02.772Z,275
2018-02-27T10:03:11.595Z,260
2018-02-27T10:04:20.422Z,250
2018-02-27T10:05:29.244Z,255
2018-02-27T10:06:38.350Z,250
2018-02-27T10:07:47.278Z,240
2018-02-27T10:08:56.106Z,255
2018-02-27T10:10:05.206Z,270
2018-02-27T10:11:14.032Z,240
2018-02-27T10:12:22.864Z,235
2018-02-27T10:13:31.736Z,260
2018-02-27T10:14:40.560Z,245
2018-02-27T10:15:49.387Z,240
2018-02-27T10:16:58.210Z,230
2018-02-27T10:18:07.034Z,235
2018-02-27T10:19:15.859Z,235
2018-02-27T10:20:24.681Z,230
2018-02-27T10:21:33.504Z,230
2018-02-27T10:22:42.326Z,240
2018-02-27T10:23:51.163Z,255
2018-02-27T10:25:00.078Z,255
2018-02-27T10:26:09.287Z,250
2018-02-27T10:27:18.385Z,245
2018-02-27T10:28:27.211Z,220
2018-02-27T10:29:36.038Z,245
2018-02-27T10:30:44.927Z,255
2018-02-27T10:31:53.738Z,265
2018-02-27T10:33:02.564Z,255
2018-02-27T10:34:11.489Z,255
2018-02-27T10:35:20.317Z,240
2018-02-27T10:36:29.342Z,270
2018-02-27T10:37:38.444Z,270
2018-02-27T10:38:47.268Z,305
2018-02-27T10:39:56.098Z,325
2018-02-27T10:41:05.201Z,360
2018-02-27T10:42:14.176Z,310
2018-02-27T10:43:22.999Z,310
2018-02-27T10:44:31.824Z,405
2018-02-27T10:45:40.651Z,395
2018-02-27T10:46:49.475Z,385
2018-02-27T10:47:58.602Z,335
2018-02-27T10:49:07.429Z,320
2018-02-27T10:50:16.252Z,320
2018-02-27T10:51:25.076Z,335
2018-02-27T10:52:33.899Z,380
2018-02-27T10:53:42.727Z,405
2018-02-27T10:54:51.587Z,410
2018-02-27T10:56:00.663Z,365
2018-02-27T10:57:09.504Z,365
2018-02-27T10:58:18.321Z,335
2018-02-27T10:59:27.146Z,350
2018-02-27T11:00:35.973Z,410
2018-02-27T11:01:44.799Z,395
2018-02-27T11:02:53.625Z,440
2018-02-27T11:04:02.450Z,435
2018-02-27T11:05:11.428Z,465
2018-02-27T11:06:20.534Z,440
2018-02-27T11:07:29.360Z,470
2018-02-27T11:08:38.187Z,445
2018-02-27T11:09:47.290Z,410
2018-02-27T11:10:56.268Z,425
2018-02-27T11:12:05.099Z,455
2018-02-27T11:13:13.933Z,470
2018-02-27T11:14:23.027Z,480
2018-02-27T11:15:31.853Z,490
2018-02-27T11:16:40.829Z,490
2018-02-27T11:17:49.660Z,525
2018-02-27T11:18:58.487Z,525
2018-02-27T11:20:07.314Z,495
2018-02-27T11:21:16.143Z,465
2018-02-27T11:22:25.070Z,485
2018-02-27T11:23:33.899Z,495
2018-02-27T11:24:42.727Z,480
2018-02-27T11:25:51.555Z,435
2018-02-27T11:27:00.383Z,435
2018-02-27T11:28:09.210Z,520
2018-02-27T11:29:18.039Z,560
2018-02-27T11:30:26.869Z,560
2018-02-27T11:31:35.697Z,535
2018-02-27T11:32:44.525Z,505
2018-02-27T11:33:53.408Z,515
2018-02-27T11:35:02.514Z,525
2018-02-27T11:36:11.344Z,520
2018-02-27T11:37:20.173Z,500
2018-02-27T11:38:29.004Z,500
2018-02-27T11:39:38.085Z,510
2018-02-27T11:40:46.913Z,490
2018-02-27T11:41:55.748Z,475
2018-02-27T11:43:04.672Z,480
2018-02-27T11:44:13.502Z,505
2018-02-27T11:45:22.661Z,495
2018-02-27T11:46:31.494Z,455
2018-02-27T11:47:40.321Z,475
2018-02-27T11:48:49.147Z,505
2018-02-27T11:49:57.977Z,530
2018-02-27T11:51:07.107Z,540
2018-02-27T11:52:15.934Z,555
2018-02-27T11:53:24.763Z,555
2018-02-27T11:54:33.591Z,560
2018-02-27T11:55:42.419Z,510
2018-02-27T11:56:51.496Z,480
2018-02-27T11:58:00.325Z,465
2018-02-27T11:59:09.154Z,460
2018-02-27T12:00:17.984Z,425
2018-02-27T12:01:26.824Z,415
2018-02-27T12:02:35.641Z,425
2018-02-27T12:03:44.470Z,455
2018-02-27T12:04:53.300Z,450
2018-02-27T12:06:02.125Z,420
2018-02-27T12:07:10.955Z,400
2018-02-27T12:08:19.784Z,405
2018-02-27T12:09:28.613Z,395
2018-02-27T12:10:37.442Z,565
2018-02-27T12:11:46.269Z,735
2018-02-27T12:12:55.374Z,705
2018-02-27T12:14:04.604Z,745
2018-02-27T12:15:13.434Z,790
2018-02-27T12:16:22.265Z,1025
2018-02-27T12:17:31.094Z,1130
2018-02-27T12:18:39.924Z,940
2018-02-27T12:19:48.752Z,1060
2018-02-27T12:20:57.588Z,585
2018-02-27T12:22:06.416Z,470
2018-02-27T12:23:15.252Z,380
2018-02-27T12:24:24.075Z,370
2018-02-27T12:25:33.209Z,395
2018-02-27T12:26:42.041Z,750
2018-02-27T12:27:50.871Z,485
2018-02-27T12:28:59.697Z,530
2018-02-27T12:30:08.576Z,555
2018-02-27T12:31:17.455Z,690
2018-02-27T12:32:26.566Z,800
2018-02-27T12:33:35.398Z,750
2018-02-27T12:34:44.227Z,580
2018-02-27T12:35:53.057Z,610
2018-02-27T12:37:01.987Z,545
2018-02-27T12:38:10.816Z,540
2018-02-27T12:39:19.649Z,545
2018-02-27T12:40:28.480Z,565
2018-02-27T12:41:37.307Z,570
2018-02-27T12:42:46.134Z,580
2018-02-27T12:43:54.964Z,610
2018-02-27T12:45:03.796Z,880
2018-02-27T12:46:12.626Z,1095
2018-02-27T12:47:21.455Z,985
2018-02-27T12:48:30.437Z,955
2018-02-27T12:49:39.544Z,830
2018-02-27T12:50:48.375Z,705
2018-02-27T12:51:57.206Z,655
2018-02-27T12:53:06.040Z,590
2018-02-27T12:54:14.922Z,480
2018-02-27T12:55:23.755Z,435
2018-02-27T12:56:32.583Z,415
2018-02-27T12:57:41.415Z,420
2018-02-27T12:58:50.256Z,445
2018-02-27T12:59:59.561Z,475
2018-02-27T13:01:08.391Z,505
2018-02-27T13:02:17.222Z,520
2018-02-27T13:03:26.055Z,520
2018-02-27T13:04:34.890Z,505
2018-02-27T13:05:43.818Z,570
2018-02-27T13:06:52.653Z,585
2018-02-27T13:08:01.766Z,460
2018-02-27T13:09:10.596Z,445
2018-02-27T13:10:19.427Z,445
2018-02-27T13:11:28.359Z,530
2018-02-27T13:12:37.464Z,475
2018-02-27T13:13:46.294Z,400
2018-02-27T13:14:55.123Z,530
2018-02-27T13:16:03.956Z,990
2018-02-27T13:17:13.216Z,1285
2018-02-27T13:18:22.045Z,1550
2018-02-27T13:19:30.883Z,1015
2018-02-27T13:20:39.711Z,1175
2018-02-27T13:21:48.545Z,1220
2018-02-27T13:22:57.657Z,1455
2018-02-27T13:24:06.490Z,675
2018-02-27T13:25:15.326Z,625
2018-02-27T13:26:24.155Z,730
2018-02-27T13:27:32.988Z,545
2018-02-27T13:28:42.074Z,560
2018-02-27T13:29:50.910Z,550
2018-02-27T13:30:59.798Z,590
2018-02-27T13:32:08.571Z,540
2018-02-27T13:33:17.405Z,525
2018-02-27T13:34:26.239Z,530
2018-02-27T13:35:35.073Z,535
2018-02-27T13:36:43.905Z,540
2018-02-27T13:37:52.773Z,550
2018-02-27T13:39:01.850Z,585
2018-02-27T13:40:10.781Z,650
2018-02-27T13:41:19.614Z,905
2018-02-27T13:42:28.723Z,1065
2018-02-27T13:43:37.553Z,985
2018-02-27T13:44:46.659Z,825
2018-02-27T13:45:56.072Z,960
2018-02-27T13:47:04.901Z,1365
2018-02-27T13:48:13.738Z,1510
2018-02-27T13:49:25.039Z,1120
2018-02-27T13:50:31.403Z,825
2018-02-27T13:51:40.387Z,430
2018-02-27T13:52:49.218Z,405
2018-02-27T13:53:58.051Z,395
2018-02-27T13:55:06.884Z,395
2018-02-27T13:56:16.002Z,400
2018-02-27T13:57:24.984Z,400
2018-02-27T13:58:34.088Z,460
2018-02-27T13:59:43.201Z,720
2018-02-27T14:00:52.036Z,475
2018-02-27T14:02:01.147Z,690
2018-02-27T14:03:10.080Z,505
2018-02-27T14:04:18.910Z,385
2018-02-27T14:05:27.743Z,400
2018-02-27T14:06:36.572Z,440
2018-02-27T14:07:45.410Z,465
2018-02-27T14:08:54.403Z,520
2018-02-27T14:10:03.215Z,650
2018-02-27T14:11:12.047Z,815
2018-02-27T14:12:20.880Z,950
2018-02-27T14:13:30.006Z,825
2018-02-27T14:14:38.986Z,675
2018-02-27T14:15:48.108Z,845
2018-02-27T14:16:56.937Z,990
2018-02-27T14:18:06.321Z,935
2018-02-27T14:19:15.151Z,935
2018-02-27T14:20:24.083Z,1010
2018-02-27T14:21:32.917Z,1095
2018-02-27T14:22:41.751Z,1155
2018-02-27T14:23:50.582Z,890
2018-02-27T14:24:59.413Z,450
2018-02-27T14:26:08.547Z,290
2018-02-27T14:27:17.659Z,235
2018-02-27T14:28:26.492Z,260
2018-02-27T14:29:35.323Z,210
2018-02-27T14:30:44.157Z,210
2018-02-27T14:31:52.992Z,215
2018-02-27T14:33:01.823Z,225
2018-02-27T14:34:10.712Z,225
2018-02-27T14:35:19.536Z,235
2018-02-27T14:36:28.365Z,240
2018-02-27T14:37:37.299Z,255
2018-02-27T14:38:46.127Z,260
2018-02-27T14:39:55.306Z,265
2018-02-27T14:41:04.132Z,270
2018-02-27T14:42:12.964Z,275
2018-02-27T14:43:21.895Z,280
2018-02-27T14:44:30.723Z,280
2018-02-27T14:45:39.552Z,290
2018-02-27T14:46:48.383Z,295
2018-02-27T14:47:57.489Z,295
2018-02-27T14:49:06.726Z,305
2018-02-27T14:50:15.546Z,300
2018-02-27T14:51:24.379Z,300
2018-02-27T14:52:33.218Z,290
2018-02-27T14:53:42.052Z,290
2018-02-27T14:54:51.286Z,285
2018-02-27T14:56:00.113Z,280
2018-02-27T14:57:08.939Z,280
2018-02-27T14:58:17.769Z,285
2018-02-27T14:59:26.599Z,290
2018-02-27T15:00:35.576Z,345
2018-02-27T15:01:44.406Z,390
2018-02-27T15:02:53.233Z,420
2018-02-27T15:04:02.062Z,420
2018-02-27T15:05:10.891Z,465
2018-02-27T15:06:19.815Z,520
2018-02-27T15:07:28.651Z,480
2018-02-27T15:08:37.476Z,435
2018-02-27T15:09:46.305Z,380
2018-02-27T15:10:55.132Z,335
2018-02-27T15:12:04.060Z,355
2018-02-27T15:13:12.885Z,420
2018-02-27T15:14:21.713Z,445
2018-02-27T15:15:30.547Z,490
2018-02-27T15:16:39.372Z,545
2018-02-27T15:17:48.199Z,565
2018-02-27T15:18:57.028Z,510
2018-02-27T15:20:05.865Z,330
2018-02-27T15:21:14.704Z,250
2018-02-27T15:22:23.562Z,330
2018-02-27T15:23:32.682Z,405
2018-02-27T15:24:41.508Z,480
2018-02-27T15:25:50.337Z,495
2018-02-27T15:26:59.166Z,345
2018-02-27T15:28:08.273Z,300
2018-02-27T15:29:17.377Z,235
2018-02-27T15:30:26.206Z,300
2018-02-27T15:31:35.089Z,345
2018-02-27T15:32:43.991Z,395
2018-02-27T15:33:53.138Z,555
2018-02-27T15:35:02.134Z,595
2018-02-27T15:36:10.962Z,555
2018-02-27T15:37:19.792Z,435
2018-02-27T15:38:28.623Z,415
2018-02-27T15:39:37.451Z,470
2018-02-27T15:40:46.279Z,310
2018-02-27T15:41:55.109Z,245
2018-02-27T15:43:03.942Z,310
2018-02-27T15:44:12.774Z,280
2018-02-27T15:45:21.604Z,310
2018-02-27T15:46:30.433Z,260
2018-02-27T15:47:39.261Z,340
2018-02-27T15:48:48.090Z,240
2018-02-27T15:49:56.997Z,225
2018-02-27T15:51:06.076Z,215
2018-02-27T15:52:15.182Z,210
2018-02-27T15:53:24.009Z,200
2018-02-27T15:54:32.837Z,215
2018-02-27T15:55:41.667Z,510
2018-02-27T15:56:50.496Z,450
2018-02-27T15:57:59.324Z,370
2018-02-27T15:59:08.157Z,330
2018-02-27T16:00:17.288Z,275
2018-02-27T16:01:26.117Z,340
2018-02-27T16:02:34.950Z,375
2018-02-27T16:03:43.774Z,210
2018-02-27T16:04:52.603Z,150
2018-02-27T16:06:01.683Z,150
2018-02-27T16:07:10.516Z,145
2018-02-27T16:08:19.344Z,145
2018-02-27T16:09:28.179Z,140
2018-02-27T16:10:37.274Z,140
2018-02-27T16:11:46.215Z,145
2018-02-27T16:12:55.045Z,145
2018-02-27T16:14:03.874Z,145
2018-02-27T16:15:12.978Z,150
2018-02-27T16:16:21.812Z,150